sensor_id;sensor_type;location;lat;lon;timestamp;P1;durP1;ratioP1;P2;durP2;ratioP2
11827;SDS011;5971;49.646;8.568;2022-11-15T00:02:03;4.78;;;2.67;;
11827;SDS011;5971;49.646;8.568;2022-11-15T00:05:05;6.43;;;3.28;;
11827;SDS011;5971;49.646;8.568;2022-11-15T00:08:07;6.07;;;2.85;;
11827;SDS011;5971;49.646;8.568;2022-11-15T00:11:10;5.80;;;3.08;;
11827;SDS011;5971;49.646;8.568;2022-11-15T00:14:11;6.00;;;3.15;;
11827;SDS011;5971;49.646;8.568;2022-11-15T00:17:12;5.53;;;2.88;;
11827;SDS011;5971;49.646;8.568;2022-11-15T00:20:14;4.00;;;2.22;;
11827;SDS011;5971;49.646;8.568;2022-11-15T00:23:15;3.35;;;2.28;;
11827;SDS011;5971;49.646;8.568;2022-11-15T00:26:17;5.43;;;3.10;;
11827;SDS011;5971;49.646;8.568;2022-11-15T00:29:19;4.10;;;2.05;;
11827;SDS011;5971;49.646;8.568;2022-11-15T00:32:20;4.78;;;2.47;;
11827;SDS011;5971;49.646;8.568;2022-11-15T00:35:21;4.20;;;3.00;;
11827;SDS011;5971;49.646;8.568;2022-11-15T00:38:23;4.90;;;2.50;;
11827;SDS011;5971;49.646;8.568;2022-11-15T00:41:24;3.95;;;2.10;;
11827;SDS011;5971;49.646;8.568;2022-11-15T00:44:25;5.63;;;2.17;;
11827;SDS011;5971;49.646;8.568;2022-11-15T00:47:27;4.68;;;3.25;;
11827;SDS011;5971;49.646;8.568;2022-11-15T00:50:28;3.95;;;2.08;;
11827;SDS011;5971;49.646;8.568;2022-11-15T00:53:29;4.55;;;2.70;;
11827;SDS011;5971;49.646;8.568;2022-11-15T00:56:31;5.13;;;2.33;;
11827;SDS011;5971;49.646;8.568;2022-11-15T00:59:32;5.85;;;2.95;;
11827;SDS011;5971;49.646;8.568;2022-11-15T01:02:34;3.47;;;2.00;;
11827;SDS011;5971;49.646;8.568;2022-11-15T01:05:36;5.78;;;3.20;;
11827;SDS011;5971;49.646;8.568;2022-11-15T01:08:38;6.07;;;2.60;;
11827;SDS011;5971;49.646;8.568;2022-11-15T01:11:40;5.95;;;2.45;;
11827;SDS011;5971;49.646;8.568;2022-11-15T01:14:41;5.43;;;2.30;;
11827;SDS011;5971;49.646;8.568;2022-11-15T01:17:43;4.07;;;2.97;;
11827;SDS011;5971;49.646;8.568;2022-11-15T01:20:44;6.95;;;2.67;;
11827;SDS011;5971;49.646;8.568;2022-11-15T01:23:45;4.07;;;2.28;;
11827;SDS011;5971;49.646;8.568;2022-11-15T01:26:46;4.38;;;2.45;;
11827;SDS011;5971;49.646;8.568;2022-11-15T01:29:48;4.25;;;2.30;;
11827;SDS011;5971;49.646;8.568;2022-11-15T01:32:49;4.97;;;1.92;;
11827;SDS011;5971;49.646;8.568;2022-11-15T01:35:50;4.00;;;2.10;;
11827;SDS011;5971;49.646;8.568;2022-11-15T01:38:57;3.97;;;2.28;;
11827;SDS011;5971;49.646;8.568;2022-11-15T01:41:59;4.05;;;2.20;;
11827;SDS011;5971;49.646;8.568;2022-11-15T01:45:01;3.60;;;1.75;;
11827;SDS011;5971;49.646;8.568;2022-11-15T01:48:02;5.38;;;2.10;;
11827;SDS011;5971;49.646;8.568;2022-11-15T01:51:05;4.72;;;2.97;;
11827;SDS011;5971;49.646;8.568;2022-11-15T01:54:08;3.95;;;2.30;;
11827;SDS011;5971;49.646;8.568;2022-11-15T01:57:11;4.97;;;1.98;;
11827;SDS011;5971;49.646;8.568;2022-11-15T02:00:13;3.72;;;2.03;;
11827;SDS011;5971;49.646;8.568;2022-11-15T02:03:15;3.53;;;2.33;;
11827;SDS011;5971;49.646;8.568;2022-11-15T02:06:16;5.47;;;2.53;;
11827;SDS011;5971;49.646;8.568;2022-11-15T02:09:17;4.93;;;2.30;;
11827;SDS011;5971;49.646;8.568;2022-11-15T02:12:19;5.88;;;2.30;;
11827;SDS011;5971;49.646;8.568;2022-11-15T02:15:21;3.92;;;2.53;;
11827;SDS011;5971;49.646;8.568;2022-11-15T02:18:46;4.60;;;2.53;;
11827;SDS011;5971;49.646;8.568;2022-11-15T02:28:31;4.05;;;2.35;;
11827;SDS011;5971;49.646;8.568;2022-11-15T02:34:57;4.35;;;2.90;;
11827;SDS011;5971;49.646;8.568;2022-11-15T02:38:12;5.30;;;2.33;;
11827;SDS011;5971;49.646;8.568;2022-11-15T02:41:25;3.88;;;2.22;;
11827;SDS011;5971;49.646;8.568;2022-11-15T02:44:33;5.53;;;2.53;;
11827;SDS011;5971;49.646;8.568;2022-11-15T02:47:41;6.22;;;2.83;;
11827;SDS011;5971;49.646;8.568;2022-11-15T02:50:44;3.47;;;2.13;;
11827;SDS011;5971;49.646;8.568;2022-11-15T02:53:46;4.18;;;2.17;;
11827;SDS011;5971;49.646;8.568;2022-11-15T02:56:47;4.60;;;2.15;;
11827;SDS011;5971;49.646;8.568;2022-11-15T02:59:53;3.95;;;2.33;;
11827;SDS011;5971;49.646;8.568;2022-11-15T03:06:33;5.38;;;3.10;;
11827;SDS011;5971;49.646;8.568;2022-11-15T03:09:42;4.25;;;1.98;;
11827;SDS011;5971;49.646;8.568;2022-11-15T03:12:56;4.57;;;2.25;;
11827;SDS011;5971;49.646;8.568;2022-11-15T03:16:03;4.78;;;2.30;;
11827;SDS011;5971;49.646;8.568;2022-11-15T03:19:52;4.53;;;2.80;;
11827;SDS011;5971;49.646;8.568;2022-11-15T03:22:27;3.72;;;1.90;;
11827;SDS011;5971;49.646;8.568;2022-11-15T03:25:30;3.63;;;2.00;;
11827;SDS011;5971;49.646;8.568;2022-11-15T03:28:40;3.67;;;2.30;;
11827;SDS011;5971;49.646;8.568;2022-11-15T03:31:44;4.30;;;2.03;;
11827;SDS011;5971;49.646;8.568;2022-11-15T03:37:59;4.35;;;2.10;;
11827;SDS011;5971;49.646;8.568;2022-11-15T03:41:05;4.72;;;2.58;;
11827;SDS011;5971;49.646;8.568;2022-11-15T03:44:15;4.07;;;2.53;;
11827;SDS011;5971;49.646;8.568;2022-11-15T03:47:26;4.22;;;2.13;;
11827;SDS011;5971;49.646;8.568;2022-11-15T03:50:28;4.90;;;2.20;;
11827;SDS011;5971;49.646;8.568;2022-11-15T03:53:30;3.78;;;2.47;;
11827;SDS011;5971;49.646;8.568;2022-11-15T03:56:33;4.70;;;1.88;;
11827;SDS011;5971;49.646;8.568;2022-11-15T03:59:34;3.50;;;1.85;;
11827;SDS011;5971;49.646;8.568;2022-11-15T04:02:35;3.58;;;2.20;;
11827;SDS011;5971;49.646;8.568;2022-11-15T04:05:37;5.38;;;2.10;;
11827;SDS011;5971;49.646;8.568;2022-11-15T04:08:38;4.00;;;2.10;;
11827;SDS011;5971;49.646;8.568;2022-11-15T04:11:39;4.68;;;2.20;;
11827;SDS011;5971;49.646;8.568;2022-11-15T04:14:40;4.57;;;2.08;;
11827;SDS011;5971;49.646;8.568;2022-11-15T04:18:01;3.83;;;2.28;;
11827;SDS011;5971;49.646;8.568;2022-11-15T04:21:03;4.00;;;2.08;;
11827;SDS011;5971;49.646;8.568;2022-11-15T04:24:23;5.30;;;2.75;;
11827;SDS011;5971;49.646;8.568;2022-11-15T04:27:24;7.10;;;2.30;;
11827;SDS011;5971;49.646;8.568;2022-11-15T04:30:25;5.13;;;3.47;;
11827;SDS011;5971;49.646;8.568;2022-11-15T04:33:26;5.22;;;2.33;;
11827;SDS011;5971;49.646;8.568;2022-11-15T04:36:28;3.97;;;2.17;;
11827;SDS011;5971;49.646;8.568;2022-11-15T04:39:48;7.15;;;2.90;;
11827;SDS011;5971;49.646;8.568;2022-11-15T04:42:49;13.88;;;5.72;;
11827;SDS011;5971;49.646;8.568;2022-11-15T04:45:50;10.90;;;4.97;;
11827;SDS011;5971;49.646;8.568;2022-11-15T04:48:52;9.65;;;4.32;;
11827;SDS011;5971;49.646;8.568;2022-11-15T04:51:59;5.95;;;2.63;;
11827;SDS011;5971;49.646;8.568;2022-11-15T04:55:00;5.97;;;2.83;;
11827;SDS011;5971;49.646;8.568;2022-11-15T04:58:08;4.70;;;3.13;;
11827;SDS011;5971;49.646;8.568;2022-11-15T05:01:10;6.65;;;3.13;;
11827;SDS011;5971;49.646;8.568;2022-11-15T05:04:13;6.65;;;3.50;;
11827;SDS011;5971;49.646;8.568;2022-11-15T05:07:20;4.95;;;2.85;;
11827;SDS011;5971;49.646;8.568;2022-11-15T05:10:21;5.80;;;3.53;;
11827;SDS011;5971;49.646;8.568;2022-11-15T05:13:22;6.63;;;3.47;;
11827;SDS011;5971;49.646;8.568;2022-11-15T05:16:24;7.53;;;3.45;;
11827;SDS011;5971;49.646;8.568;2022-11-15T05:19:25;5.90;;;3.80;;
11827;SDS011;5971;49.646;8.568;2022-11-15T05:22:27;5.35;;;2.63;;
11827;SDS011;5971;49.646;8.568;2022-11-15T05:25:29;4.55;;;2.58;;
11827;SDS011;5971;49.646;8.568;2022-11-15T05:28:30;5.60;;;3.85;;
11827;SDS011;5971;49.646;8.568;2022-11-15T05:31:32;5.80;;;2.85;;
11827;SDS011;5971;49.646;8.568;2022-11-15T05:34:33;6.70;;;3.17;;
11827;SDS011;5971;49.646;8.568;2022-11-15T05:37:34;7.72;;;4.22;;
11827;SDS011;5971;49.646;8.568;2022-11-15T05:40:35;7.40;;;4.10;;
11827;SDS011;5971;49.646;8.568;2022-11-15T05:43:37;5.78;;;2.92;;
11827;SDS011;5971;49.646;8.568;2022-11-15T05:46:39;7.55;;;3.30;;
11827;SDS011;5971;49.646;8.568;2022-11-15T05:49:41;6.05;;;3.30;;
11827;SDS011;5971;49.646;8.568;2022-11-15T05:52:44;9.57;;;4.72;;
11827;SDS011;5971;49.646;8.568;2022-11-15T05:55:46;6.72;;;4.03;;
11827;SDS011;5971;49.646;8.568;2022-11-15T05:58:47;5.70;;;3.53;;
11827;SDS011;5971;49.646;8.568;2022-11-15T06:01:49;8.35;;;4.20;;
11827;SDS011;5971;49.646;8.568;2022-11-15T06:04:50;7.57;;;4.50;;
11827;SDS011;5971;49.646;8.568;2022-11-15T06:07:51;9.43;;;4.60;;
11827;SDS011;5971;49.646;8.568;2022-11-15T06:10:53;6.47;;;3.72;;
11827;SDS011;5971;49.646;8.568;2022-11-15T06:13:55;6.63;;;3.28;;
11827;SDS011;5971;49.646;8.568;2022-11-15T06:16:57;6.63;;;4.05;;
11827;SDS011;5971;49.646;8.568;2022-11-15T06:19:58;5.80;;;2.92;;
11827;SDS011;5971;49.646;8.568;2022-11-15T06:23:02;6.40;;;3.42;;
11827;SDS011;5971;49.646;8.568;2022-11-15T06:26:03;7.50;;;3.42;;
11827;SDS011;5971;49.646;8.568;2022-11-15T06:29:05;6.80;;;3.55;;
11827;SDS011;5971;49.646;8.568;2022-11-15T06:32:06;5.20;;;2.80;;
11827;SDS011;5971;49.646;8.568;2022-11-15T06:35:07;5.63;;;2.63;;
11827;SDS011;5971;49.646;8.568;2022-11-15T06:38:09;11.75;;;5.45;;
11827;SDS011;5971;49.646;8.568;2022-11-15T06:41:11;8.48;;;4.25;;
11827;SDS011;5971;49.646;8.568;2022-11-15T06:44:12;7.10;;;3.13;;
11827;SDS011;5971;49.646;8.568;2022-11-15T06:47:13;11.98;;;6.50;;
11827;SDS011;5971;49.646;8.568;2022-11-15T06:50:15;6.85;;;4.07;;
11827;SDS011;5971;49.646;8.568;2022-11-15T06:53:16;9.60;;;4.82;;
11827;SDS011;5971;49.646;8.568;2022-11-15T06:56:17;8.68;;;4.18;;
11827;SDS011;5971;49.646;8.568;2022-11-15T06:59:19;9.98;;;5.55;;
11827;SDS011;5971;49.646;8.568;2022-11-15T07:02:21;6.75;;;3.70;;
11827;SDS011;5971;49.646;8.568;2022-11-15T07:05:22;5.85;;;3.25;;
11827;SDS011;5971;49.646;8.568;2022-11-15T07:08:23;8.50;;;3.65;;
11827;SDS011;5971;49.646;8.568;2022-11-15T07:11:25;7.30;;;3.17;;
11827;SDS011;5971;49.646;8.568;2022-11-15T07:14:26;8.82;;;5.70;;
11827;SDS011;5971;49.646;8.568;2022-11-15T07:17:27;9.60;;;4.90;;
11827;SDS011;5971;49.646;8.568;2022-11-15T07:20:29;6.95;;;4.70;;
11827;SDS011;5971;49.646;8.568;2022-11-15T07:23:30;5.97;;;2.80;;
11827;SDS011;5971;49.646;8.568;2022-11-15T07:26:32;6.43;;;3.08;;
11827;SDS011;5971;49.646;8.568;2022-11-15T07:29:33;7.18;;;2.72;;
11827;SDS011;5971;49.646;8.568;2022-11-15T07:32:34;5.10;;;2.60;;
11827;SDS011;5971;49.646;8.568;2022-11-15T07:35:36;4.70;;;2.53;;
11827;SDS011;5971;49.646;8.568;2022-11-15T07:38:37;4.95;;;2.47;;
11827;SDS011;5971;49.646;8.568;2022-11-15T07:41:44;6.70;;;3.25;;
11827;SDS011;5971;49.646;8.568;2022-11-15T07:44:45;6.40;;;5.15;;
11827;SDS011;5971;49.646;8.568;2022-11-15T07:47:47;6.63;;;3.33;;
11827;SDS011;5971;49.646;8.568;2022-11-15T07:50:48;5.40;;;2.83;;
11827;SDS011;5971;49.646;8.568;2022-11-15T07:53:50;7.00;;;3.72;;
11827;SDS011;5971;49.646;8.568;2022-11-15T07:56:51;5.78;;;2.90;;
11827;SDS011;5971;49.646;8.568;2022-11-15T07:59:52;4.70;;;2.67;;
11827;SDS011;5971;49.646;8.568;2022-11-15T08:03:00;6.05;;;3.22;;
11827;SDS011;5971;49.646;8.568;2022-11-15T08:06:02;6.22;;;3.53;;
11827;SDS011;5971;49.646;8.568;2022-11-15T08:09:03;4.43;;;2.45;;
11827;SDS011;5971;49.646;8.568;2022-11-15T08:12:04;4.75;;;2.33;;
11827;SDS011;5971;49.646;8.568;2022-11-15T08:15:06;5.05;;;2.38;;
11827;SDS011;5971;49.646;8.568;2022-11-15T08:18:12;5.28;;;2.53;;
11827;SDS011;5971;49.646;8.568;2022-11-15T08:21:14;4.63;;;2.40;;
11827;SDS011;5971;49.646;8.568;2022-11-15T08:24:18;5.05;;;2.83;;
11827;SDS011;5971;49.646;8.568;2022-11-15T08:27:20;4.57;;;2.13;;
11827;SDS011;5971;49.646;8.568;2022-11-15T08:30:21;4.80;;;2.63;;
11827;SDS011;5971;49.646;8.568;2022-11-15T08:33:23;4.88;;;3.20;;
11827;SDS011;5971;49.646;8.568;2022-11-15T08:36:24;5.03;;;2.03;;
11827;SDS011;5971;49.646;8.568;2022-11-15T08:39:26;4.47;;;2.53;;
11827;SDS011;5971;49.646;8.568;2022-11-15T08:42:27;4.57;;;2.35;;
11827;SDS011;5971;49.646;8.568;2022-11-15T08:45:29;5.28;;;3.33;;
11827;SDS011;5971;49.646;8.568;2022-11-15T08:48:30;4.80;;;2.65;;
11827;SDS011;5971;49.646;8.568;2022-11-15T08:51:32;4.28;;;2.92;;
11827;SDS011;5971;49.646;8.568;2022-11-15T08:54:34;5.30;;;2.78;;
11827;SDS011;5971;49.646;8.568;2022-11-15T08:57:35;5.15;;;2.90;;
11827;SDS011;5971;49.646;8.568;2022-11-15T09:00:37;5.78;;;3.13;;
11827;SDS011;5971;49.646;8.568;2022-11-15T09:03:39;4.65;;;2.75;;
11827;SDS011;5971;49.646;8.568;2022-11-15T09:06:40;6.00;;;3.13;;
11827;SDS011;5971;49.646;8.568;2022-11-15T09:09:43;7.10;;;3.35;;
11827;SDS011;5971;49.646;8.568;2022-11-15T09:12:44;8.23;;;4.95;;
11827;SDS011;5971;49.646;8.568;2022-11-15T09:15:49;9.40;;;4.68;;
11827;SDS011;5971;49.646;8.568;2022-11-15T09:18:50;8.60;;;5.18;;
11827;SDS011;5971;49.646;8.568;2022-11-15T09:21:52;6.63;;;3.47;;
11827;SDS011;5971;49.646;8.568;2022-11-15T09:24:53;6.80;;;3.45;;
11827;SDS011;5971;49.646;8.568;2022-11-15T09:27:56;5.10;;;2.72;;
11827;SDS011;5971;49.646;8.568;2022-11-15T09:31:01;5.28;;;2.90;;
11827;SDS011;5971;49.646;8.568;2022-11-15T09:34:04;6.05;;;3.45;;
11827;SDS011;5971;49.646;8.568;2022-11-15T09:37:05;7.78;;;3.60;;
11827;SDS011;5971;49.646;8.568;2022-11-15T09:40:09;5.68;;;3.10;;
11827;SDS011;5971;49.646;8.568;2022-11-15T09:43:24;6.57;;;2.92;;
11827;SDS011;5971;49.646;8.568;2022-11-15T09:47:03;5.30;;;3.00;;
11827;SDS011;5971;49.646;8.568;2022-11-15T09:49:57;6.05;;;3.10;;
11827;SDS011;5971;49.646;8.568;2022-11-15T09:52:59;5.72;;;3.03;;
11827;SDS011;5971;49.646;8.568;2022-11-15T09:56:02;7.43;;;2.67;;
11827;SDS011;5971;49.646;8.568;2022-11-15T10:02:26;4.43;;;2.65;;
11827;SDS011;5971;49.646;8.568;2022-11-15T10:05:30;6.47;;;2.80;;
11827;SDS011;5971;49.646;8.568;2022-11-15T10:08:37;5.28;;;3.53;;
11827;SDS011;5971;49.646;8.568;2022-11-15T10:11:41;5.45;;;2.53;;
11827;SDS011;5971;49.646;8.568;2022-11-15T10:14:43;3.70;;;2.13;;
11827;SDS011;5971;49.646;8.568;2022-11-15T10:21:06;4.47;;;2.47;;
11827;SDS011;5971;49.646;8.568;2022-11-15T10:24:15;5.15;;;2.47;;
11827;SDS011;5971;49.646;8.568;2022-11-15T10:27:19;3.63;;;1.80;;
11827;SDS011;5971;49.646;8.568;2022-11-15T10:30:20;4.38;;;2.08;;
11827;SDS011;5971;49.646;8.568;2022-11-15T10:33:24;5.72;;;2.80;;
11827;SDS011;5971;49.646;8.568;2022-11-15T10:36:26;3.83;;;2.05;;
11827;SDS011;5971;49.646;8.568;2022-11-15T10:39:28;5.68;;;2.05;;
11827;SDS011;5971;49.646;8.568;2022-11-15T10:42:29;3.67;;;2.00;;
11827;SDS011;5971;49.646;8.568;2022-11-15T10:45:31;4.00;;;1.88;;
11827;SDS011;5971;49.646;8.568;2022-11-15T10:48:32;3.50;;;2.13;;
11827;SDS011;5971;49.646;8.568;2022-11-15T10:51:34;3.42;;;1.73;;
11827;SDS011;5971;49.646;8.568;2022-11-15T10:54:42;3.85;;;1.92;;
11827;SDS011;5971;49.646;8.568;2022-11-15T10:57:49;3.88;;;1.83;;
11827;SDS011;5971;49.646;8.568;2022-11-15T11:00:52;3.55;;;1.88;;
11827;SDS011;5971;49.646;8.568;2022-11-15T11:03:58;2.40;;;1.30;;
11827;SDS011;5971;49.646;8.568;2022-11-15T11:07:00;3.15;;;2.00;;
11827;SDS011;5971;49.646;8.568;2022-11-15T11:10:17;4.55;;;1.83;;
11827;SDS011;5971;49.646;8.568;2022-11-15T11:13:39;4.63;;;2.42;;
11827;SDS011;5971;49.646;8.568;2022-11-15T11:16:54;4.25;;;2.10;;
11827;SDS011;5971;49.646;8.568;2022-11-15T11:20:16;4.05;;;2.13;;
11827;SDS011;5971;49.646;8.568;2022-11-15T11:23:42;4.45;;;2.13;;
11827;SDS011;5971;49.646;8.568;2022-11-15T11:33:12;2.60;;;1.50;;
11827;SDS011;5971;49.646;8.568;2022-11-15T11:39:40;3.70;;;1.60;;
11827;SDS011;5971;49.646;8.568;2022-11-15T11:43:01;2.47;;;1.70;;
11827;SDS011;5971;49.646;8.568;2022-11-15T11:52:23;3.60;;;1.50;;
11827;SDS011;5971;49.646;8.568;2022-11-15T11:55:29;3.95;;;1.70;;
11827;SDS011;5971;49.646;8.568;2022-11-15T11:58:34;2.88;;;1.55;;
11827;SDS011;5971;49.646;8.568;2022-11-15T12:01:39;5.55;;;1.70;;
11827;SDS011;5971;49.646;8.568;2022-11-15T12:04:47;3.97;;;1.80;;
11827;SDS011;5971;49.646;8.568;2022-11-15T12:07:49;3.35;;;2.30;;
11827;SDS011;5971;49.646;8.568;2022-11-15T12:11:00;6.82;;;1.80;;
11827;SDS011;5971;49.646;8.568;2022-11-15T12:14:03;2.90;;;1.55;;
11827;SDS011;5971;49.646;8.568;2022-11-15T12:17:10;4.85;;;2.35;;
11827;SDS011;5971;49.646;8.568;2022-11-15T12:20:22;4.60;;;1.83;;
11827;SDS011;5971;49.646;8.568;2022-11-15T12:23:25;3.95;;;1.73;;
11827;SDS011;5971;49.646;8.568;2022-11-15T12:26:34;4.88;;;1.90;;
11827;SDS011;5971;49.646;8.568;2022-11-15T12:29:39;4.10;;;1.90;;
11827;SDS011;5971;49.646;8.568;2022-11-15T12:32:58;2.80;;;1.55;;
11827;SDS011;5971;49.646;8.568;2022-11-15T12:36:04;2.70;;;1.48;;
11827;SDS011;5971;49.646;8.568;2022-11-15T12:39:06;4.38;;;2.03;;
11827;SDS011;5971;49.646;8.568;2022-11-15T12:42:35;2.70;;;1.50;;
11827;SDS011;5971;49.646;8.568;2022-11-15T12:45:36;2.97;;;1.40;;
11827;SDS011;5971;49.646;8.568;2022-11-15T12:54:49;2.50;;;1.40;;
11827;SDS011;5971;49.646;8.568;2022-11-15T12:57:51;2.58;;;1.40;;
11827;SDS011;5971;49.646;8.568;2022-11-15T13:00:52;2.45;;;1.30;;
11827;SDS011;5971;49.646;8.568;2022-11-15T13:04:13;2.88;;;1.38;;
11827;SDS011;5971;49.646;8.568;2022-11-15T13:10:43;3.42;;;1.25;;
11827;SDS011;5971;49.646;8.568;2022-11-15T13:13:45;3.38;;;1.67;;
11827;SDS011;5971;49.646;8.568;2022-11-15T13:16:48;3.90;;;1.40;;
11827;SDS011;5971;49.646;8.568;2022-11-15T13:23:09;2.30;;;1.25;;
11827;SDS011;5971;49.646;8.568;2022-11-15T13:26:14;2.88;;;2.08;;
11827;SDS011;5971;49.646;8.568;2022-11-15T13:29:18;3.20;;;1.60;;
11827;SDS011;5971;49.646;8.568;2022-11-15T13:32:20;4.65;;;2.10;;
11827;SDS011;5971;49.646;8.568;2022-11-15T13:35:23;3.15;;;1.42;;
11827;SDS011;5971;49.646;8.568;2022-11-15T13:41:30;3.50;;;1.90;;
11827;SDS011;5971;49.646;8.568;2022-11-15T13:44:32;2.55;;;1.30;;
11827;SDS011;5971;49.646;8.568;2022-11-15T13:47:34;3.17;;;1.65;;
11827;SDS011;5971;49.646;8.568;2022-11-15T13:50:36;3.10;;;1.27;;
11827;SDS011;5971;49.646;8.568;2022-11-15T13:53:40;2.88;;;1.50;;
11827;SDS011;5971;49.646;8.568;2022-11-15T13:56:42;2.83;;;1.42;;
11827;SDS011;5971;49.646;8.568;2022-11-15T14:02:46;3.60;;;1.50;;
11827;SDS011;5971;49.646;8.568;2022-11-15T14:09:32;6.72;;;2.15;;
11827;SDS011;5971;49.646;8.568;2022-11-15T14:12:34;3.75;;;2.03;;
11827;SDS011;5971;49.646;8.568;2022-11-15T14:15:38;8.05;;;3.50;;
11827;SDS011;5971;49.646;8.568;2022-11-15T14:18:44;13.77;;;5.47;;
11827;SDS011;5971;49.646;8.568;2022-11-15T14:25:18;3.33;;;1.50;;
11827;SDS011;5971;49.646;8.568;2022-11-15T14:31:21;2.53;;;1.58;;
11827;SDS011;5971;49.646;8.568;2022-11-15T14:34:23;2.88;;;1.63;;
11827;SDS011;5971;49.646;8.568;2022-11-15T14:37:28;3.45;;;1.95;;
11827;SDS011;5971;49.646;8.568;2022-11-15T14:40:32;4.50;;;2.35;;
11827;SDS011;5971;49.646;8.568;2022-11-15T14:43:33;3.45;;;1.63;;
11827;SDS011;5971;49.646;8.568;2022-11-15T14:46:34;3.85;;;1.88;;
11827;SDS011;5971;49.646;8.568;2022-11-15T14:49:36;5.35;;;2.10;;
11827;SDS011;5971;49.646;8.568;2022-11-15T14:52:37;6.32;;;2.35;;
11827;SDS011;5971;49.646;8.568;2022-11-15T14:55:38;3.95;;;2.05;;
11827;SDS011;5971;49.646;8.568;2022-11-15T14:58:40;5.30;;;1.98;;
11827;SDS011;5971;49.646;8.568;2022-11-15T15:01:41;5.43;;;2.50;;
11827;SDS011;5971;49.646;8.568;2022-11-15T15:04:42;5.15;;;2.33;;
11827;SDS011;5971;49.646;8.568;2022-11-15T15:07:44;3.78;;;2.08;;
11827;SDS011;5971;49.646;8.568;2022-11-15T15:10:45;6.20;;;2.55;;
11827;SDS011;5971;49.646;8.568;2022-11-15T15:13:47;4.57;;;2.28;;
11827;SDS011;5971;49.646;8.568;2022-11-15T15:16:48;4.97;;;2.25;;
11827;SDS011;5971;49.646;8.568;2022-11-15T15:19:49;5.60;;;2.40;;
11827;SDS011;5971;49.646;8.568;2022-11-15T15:22:51;4.55;;;2.33;;
11827;SDS011;5971;49.646;8.568;2022-11-15T15:25:52;5.25;;;2.67;;
11827;SDS011;5971;49.646;8.568;2022-11-15T15:28:54;5.03;;;2.72;;
11827;SDS011;5971;49.646;8.568;2022-11-15T15:31:55;7.88;;;3.05;;
11827;SDS011;5971;49.646;8.568;2022-11-15T15:34:56;5.88;;;2.80;;
11827;SDS011;5971;49.646;8.568;2022-11-15T15:37:57;6.13;;;3.40;;
11827;SDS011;5971;49.646;8.568;2022-11-15T15:40:59;5.15;;;3.08;;
11827;SDS011;5971;49.646;8.568;2022-11-15T15:44:02;6.60;;;3.70;;
11827;SDS011;5971;49.646;8.568;2022-11-15T15:47:09;5.88;;;3.03;;
11827;SDS011;5971;49.646;8.568;2022-11-15T15:50:14;5.50;;;3.03;;
11827;SDS011;5971;49.646;8.568;2022-11-15T15:53:18;4.78;;;2.75;;
11827;SDS011;5971;49.646;8.568;2022-11-15T15:56:20;5.28;;;2.35;;
11827;SDS011;5971;49.646;8.568;2022-11-15T15:59:22;8.43;;;2.42;;
11827;SDS011;5971;49.646;8.568;2022-11-15T16:02:24;5.30;;;3.50;;
11827;SDS011;5971;49.646;8.568;2022-11-15T16:05:25;4.63;;;2.65;;
11827;SDS011;5971;49.646;8.568;2022-11-15T16:08:26;5.75;;;2.45;;
11827;SDS011;5971;49.646;8.568;2022-11-15T16:11:38;4.30;;;2.17;;
11827;SDS011;5971;49.646;8.568;2022-11-15T16:14:39;3.72;;;2.10;;
11827;SDS011;5971;49.646;8.568;2022-11-15T16:17:42;4.10;;;2.20;;
11827;SDS011;5971;49.646;8.568;2022-11-15T16:20:45;5.00;;;2.20;;
11827;SDS011;5971;49.646;8.568;2022-11-15T16:23:48;3.95;;;2.30;;
11827;SDS011;5971;49.646;8.568;2022-11-15T16:26:49;6.80;;;3.00;;
11827;SDS011;5971;49.646;8.568;2022-11-15T16:29:51;17.55;;;6.40;;
11827;SDS011;5971;49.646;8.568;2022-11-15T16:32:52;15.68;;;5.70;;
11827;SDS011;5971;49.646;8.568;2022-11-15T16:35:54;12.18;;;4.85;;
11827;SDS011;5971;49.646;8.568;2022-11-15T16:38:56;13.95;;;6.25;;
11827;SDS011;5971;49.646;8.568;2022-11-15T16:41:58;11.07;;;4.63;;
11827;SDS011;5971;49.646;8.568;2022-11-15T16:44:59;8.57;;;3.75;;
11827;SDS011;5971;49.646;8.568;2022-11-15T16:48:01;10.05;;;3.70;;
11827;SDS011;5971;49.646;8.568;2022-11-15T16:51:02;5.18;;;2.65;;
11827;SDS011;5971;49.646;8.568;2022-11-15T16:54:05;8.43;;;3.92;;
11827;SDS011;5971;49.646;8.568;2022-11-15T16:57:07;8.93;;;4.30;;
11827;SDS011;5971;49.646;8.568;2022-11-15T17:00:11;9.70;;;4.18;;
11827;SDS011;5971;49.646;8.568;2022-11-15T17:03:16;10.80;;;3.78;;
11827;SDS011;5971;49.646;8.568;2022-11-15T17:06:17;7.50;;;3.53;;
11827;SDS011;5971;49.646;8.568;2022-11-15T17:09:20;5.03;;;2.85;;
11827;SDS011;5971;49.646;8.568;2022-11-15T17:12:24;7.75;;;2.90;;
11827;SDS011;5971;49.646;8.568;2022-11-15T17:15:25;9.48;;;4.53;;
11827;SDS011;5971;49.646;8.568;2022-11-15T17:18:27;10.23;;;5.20;;
11827;SDS011;5971;49.646;8.568;2022-11-15T17:21:28;11.52;;;5.82;;
11827;SDS011;5971;49.646;8.568;2022-11-15T17:24:33;7.13;;;4.32;;
11827;SDS011;5971;49.646;8.568;2022-11-15T17:27:35;8.48;;;3.65;;
11827;SDS011;5971;49.646;8.568;2022-11-15T17:30:39;5.15;;;2.58;;
11827;SDS011;5971;49.646;8.568;2022-11-15T17:33:40;9.15;;;4.13;;
11827;SDS011;5971;49.646;8.568;2022-11-15T17:36:42;11.07;;;6.25;;
11827;SDS011;5971;49.646;8.568;2022-11-15T17:39:43;5.20;;;2.80;;
11827;SDS011;5971;49.646;8.568;2022-11-15T17:42:44;4.20;;;2.17;;
11827;SDS011;5971;49.646;8.568;2022-11-15T17:45:45;10.65;;;3.05;;
11827;SDS011;5971;49.646;8.568;2022-11-15T17:48:47;4.53;;;2.65;;
11827;SDS011;5971;49.646;8.568;2022-11-15T17:51:49;4.43;;;2.80;;
11827;SDS011;5971;49.646;8.568;2022-11-15T17:54:50;5.53;;;3.13;;
11827;SDS011;5971;49.646;8.568;2022-11-15T17:57:51;4.35;;;2.60;;
11827;SDS011;5971;49.646;8.568;2022-11-15T18:00:53;4.47;;;2.03;;
11827;SDS011;5971;49.646;8.568;2022-11-15T18:03:54;3.90;;;2.00;;
11827;SDS011;5971;49.646;8.568;2022-11-15T18:06:56;4.40;;;2.35;;
11827;SDS011;5971;49.646;8.568;2022-11-15T18:09:57;5.22;;;2.40;;
11827;SDS011;5971;49.646;8.568;2022-11-15T18:12:58;4.15;;;2.42;;
11827;SDS011;5971;49.646;8.568;2022-11-15T18:16:00;6.43;;;3.35;;
11827;SDS011;5971;49.646;8.568;2022-11-15T18:19:04;6.95;;;4.05;;
11827;SDS011;5971;49.646;8.568;2022-11-15T18:22:13;7.38;;;3.55;;
11827;SDS011;5971;49.646;8.568;2022-11-15T18:25:14;5.55;;;3.22;;
11827;SDS011;5971;49.646;8.568;2022-11-15T18:28:16;6.60;;;3.17;;
11827;SDS011;5971;49.646;8.568;2022-11-15T18:31:21;9.60;;;3.42;;
11827;SDS011;5971;49.646;8.568;2022-11-15T18:34:23;7.68;;;3.03;;
11827;SDS011;5971;49.646;8.568;2022-11-15T18:37:25;7.57;;;3.30;;
11827;SDS011;5971;49.646;8.568;2022-11-15T18:40:26;8.07;;;3.53;;
11827;SDS011;5971;49.646;8.568;2022-11-15T18:43:28;7.68;;;3.97;;
11827;SDS011;5971;49.646;8.568;2022-11-15T18:46:30;7.82;;;3.88;;
11827;SDS011;5971;49.646;8.568;2022-11-15T18:49:32;7.07;;;3.60;;
11827;SDS011;5971;49.646;8.568;2022-11-15T18:52:33;6.68;;;3.35;;
11827;SDS011;5971;49.646;8.568;2022-11-15T18:55:34;6.43;;;3.75;;
11827;SDS011;5971;49.646;8.568;2022-11-15T18:58:37;6.43;;;2.97;;
11827;SDS011;5971;49.646;8.568;2022-11-15T19:01:40;6.38;;;3.00;;
11827;SDS011;5971;49.646;8.568;2022-11-15T19:04:41;6.60;;;3.15;;
11827;SDS011;5971;49.646;8.568;2022-11-15T19:07:46;9.40;;;4.45;;
11827;SDS011;5971;49.646;8.568;2022-11-15T19:10:47;8.00;;;4.00;;
11827;SDS011;5971;49.646;8.568;2022-11-15T19:13:51;7.15;;;3.35;;
11827;SDS011;5971;49.646;8.568;2022-11-15T19:16:53;5.18;;;2.92;;
11827;SDS011;5971;49.646;8.568;2022-11-15T19:19:55;5.50;;;2.63;;
11827;SDS011;5971;49.646;8.568;2022-11-15T19:22:56;4.03;;;2.28;;
11827;SDS011;5971;49.646;8.568;2022-11-15T19:25:58;4.15;;;2.55;;
11827;SDS011;5971;49.646;8.568;2022-11-15T19:29:00;5.30;;;3.13;;
11827;SDS011;5971;49.646;8.568;2022-11-15T19:32:01;6.35;;;3.20;;
11827;SDS011;5971;49.646;8.568;2022-11-15T19:35:04;4.95;;;3.30;;
11827;SDS011;5971;49.646;8.568;2022-11-15T19:38:05;4.88;;;2.90;;
11827;SDS011;5971;49.646;8.568;2022-11-15T19:41:11;8.45;;;4.97;;
11827;SDS011;5971;49.646;8.568;2022-11-15T19:44:12;7.63;;;3.30;;
11827;SDS011;5971;49.646;8.568;2022-11-15T19:47:14;6.07;;;3.17;;
11827;SDS011;5971;49.646;8.568;2022-11-15T19:50:15;7.22;;;3.33;;